Main page
METAR-TAF:

METAR-TAF

Airports :

Stornoway Airport

Stornoway, Scotland

latitude: 58-13N, longitude: 006-19W, elevation: 9 m

Current weather observation

The report was made 30 minutes ago, at 21:50 UTC
Wind 3 kt from the West/Northwest
Temperature -2°C
Humidity 86%
Pressure 1025 hPa
Visibility 10 km or more

METAR: EGPO 112150Z AUTO 30003KT 9999 NCD M02/M04 Q1025

Time: 23:20 (22:20 UTC)

Forecast

The report was made 2 hours and 24 minutes ago, at 19:56 UTC
Forecast valid from 11 at 21 UTC to 12 at 06 UTC
Wind 4 kt from the North/Northeast
Visibility 10 km or more
Few clouds at a height of 4000 ft

TAF: EGPO 111956Z 1121/1206 02004KT 9999 FEW040

Weather observations and forecasts of more than 4000 airports (METAR and TAF reports).

The available stations are represented by yellow and red dots on the map.

Hover mouse over dot to see the name of the station.

Then click to see weather observations and forecasts.

To change the map : click on the green buttons with a black cross to zoom in, on the green button with a dash to zoom out, or on the green arrows for adjacent maps.


METAR-TAF: